sensor_id;sensor_type;location;lat;lon;timestamp;pressure;altitude;pressure_sealevel;temperature;humidity
72950;BME280;64868;45.710;9.590;2023-01-10T00:00:22;98115.88;;;2.81;70.82
72950;BME280;64868;45.710;9.590;2023-01-10T00:02:48;98124.44;;;2.72;71.08
72950;BME280;64868;45.710;9.590;2023-01-10T00:05:13;98134.88;;;2.78;71.76
72950;BME280;64868;45.710;9.590;2023-01-10T00:07:39;98121.41;;;2.62;72.38
72950;BME280;64868;45.710;9.590;2023-01-10T00:10:04;98140.25;;;2.62;72.09
72950;BME280;64868;45.710;9.590;2023-01-10T00:12:30;98115.91;;;2.48;72.45
72950;BME280;64868;45.710;9.590;2023-01-10T00:15:14;98141.84;;;2.49;72.08
72950;BME280;64868;45.710;9.590;2023-01-10T00:17:39;98136.72;;;2.44;72.40
72950;BME280;64868;45.710;9.590;2023-01-10T00:20:05;98149.41;;;2.42;72.97
72950;BME280;64868;45.710;9.590;2023-01-10T00:22:30;98157.47;;;2.42;72.92
72950;BME280;64868;45.710;9.590;2023-01-10T00:24:56;98148.72;;;2.39;72.30
72950;BME280;64868;45.710;9.590;2023-01-10T00:27:21;98152.50;;;2.35;73.81
72950;BME280;64868;45.710;9.590;2023-01-10T00:29:48;98170.94;;;2.42;72.96
72950;BME280;64868;45.710;9.590;2023-01-10T00:32:15;98158.16;;;2.46;73.28
72950;BME280;64868;45.710;9.590;2023-01-10T00:34:41;98174.13;;;2.98;69.80
72950;BME280;64868;45.710;9.590;2023-01-10T00:37:06;98168.34;;;2.57;71.78
72950;BME280;64868;45.710;9.590;2023-01-10T00:39:32;98174.84;;;2.53;71.88
72950;BME280;64868;45.710;9.590;2023-01-10T00:41:57;98172.72;;;2.42;72.21
72950;BME280;64868;45.710;9.590;2023-01-10T00:44:41;98184.53;;;2.39;71.49
72950;BME280;64868;45.710;9.590;2023-01-10T00:47:06;98187.94;;;2.43;72.12
72950;BME280;64868;45.710;9.590;2023-01-10T00:49:32;98182.63;;;2.41;72.66
72950;BME280;64868;45.710;9.590;2023-01-10T00:51:57;98190.53;;;2.78;69.81
72950;BME280;64868;45.710;9.590;2023-01-10T00:54:24;98189.94;;;2.88;69.14
72950;BME280;64868;45.710;9.590;2023-01-10T00:56:49;98193.72;;;2.68;69.98
72950;BME280;64868;45.710;9.590;2023-01-10T00:59:15;98199.88;;;2.55;70.43
72950;BME280;64868;45.710;9.590;2023-01-10T01:01:40;98202.09;;;2.47;71.01
72950;BME280;64868;45.710;9.590;2023-01-10T01:04:05;98208.75;;;2.39;71.85
72950;BME280;64868;45.710;9.590;2023-01-10T01:06:31;98199.00;;;2.37;71.68
72950;BME280;64868;45.710;9.590;2023-01-10T01:08:56;98199.16;;;2.34;72.39
72950;BME280;64868;45.710;9.590;2023-01-10T01:11:22;98202.50;;;2.22;73.91
72950;BME280;64868;45.710;9.590;2023-01-10T01:13:47;98219.13;;;2.30;73.34
72950;BME280;64868;45.710;9.590;2023-01-10T01:16:12;98207.41;;;2.31;71.91
72950;BME280;64868;45.710;9.590;2023-01-10T01:18:38;98223.06;;;2.40;71.13
72950;BME280;64868;45.710;9.590;2023-01-10T01:21:03;98237.22;;;2.43;70.07
72950;BME280;64868;45.710;9.590;2023-01-10T01:23:31;98235.25;;;2.47;70.52
72950;BME280;64868;45.710;9.590;2023-01-10T01:25:57;98234.44;;;2.96;68.30
72950;BME280;64868;45.710;9.590;2023-01-10T01:28:23;98246.09;;;3.12;66.34
72950;BME280;64868;45.710;9.590;2023-01-10T01:30:49;98257.41;;;2.85;69.32
72950;BME280;64868;45.710;9.590;2023-01-10T01:33:15;98265.84;;;2.95;66.88
72950;BME280;64868;45.710;9.590;2023-01-10T01:35:43;98254.31;;;2.93;65.60
72950;BME280;64868;45.710;9.590;2023-01-10T01:38:09;98253.50;;;2.91;66.94
72950;BME280;64868;45.710;9.590;2023-01-10T01:40:34;98259.69;;;2.93;66.82
72950;BME280;64868;45.710;9.590;2023-01-10T01:43:02;98256.13;;;2.92;66.46
72950;BME280;64868;45.710;9.590;2023-01-10T01:45:38;98263.97;;;2.80;67.34
72950;BME280;64868;45.710;9.590;2023-01-10T01:50:55;98290.53;;;2.53;68.39
72950;BME280;64868;45.710;9.590;2023-01-10T01:53:33;98275.19;;;2.37;70.18
72950;BME280;64868;45.710;9.590;2023-01-10T01:56:07;98271.38;;;2.41;68.81
72950;BME280;64868;45.710;9.590;2023-01-10T01:58:41;98282.84;;;2.45;69.51
72950;BME280;64868;45.710;9.590;2023-01-10T02:01:08;98304.47;;;2.26;69.90
72950;BME280;64868;45.710;9.590;2023-01-10T02:03:35;98286.25;;;2.66;68.18
72950;BME280;64868;45.710;9.590;2023-01-10T02:06:01;98288.28;;;2.96;65.44
72950;BME280;64868;45.710;9.590;2023-01-10T02:08:27;98284.59;;;2.63;67.58
72950;BME280;64868;45.710;9.590;2023-01-10T02:11:00;98282.72;;;2.65;68.58
72950;BME280;64868;45.710;9.590;2023-01-10T02:13:29;98294.25;;;2.67;67.84
72950;BME280;64868;45.710;9.590;2023-01-10T02:15:55;98292.91;;;2.41;69.04
72950;BME280;64868;45.710;9.590;2023-01-10T02:18:21;98282.78;;;2.64;66.98
72950;BME280;64868;45.710;9.590;2023-01-10T02:20:55;98288.28;;;2.78;66.42
72950;BME280;64868;45.710;9.590;2023-01-10T02:23:30;98307.47;;;2.55;67.73
72950;BME280;64868;45.710;9.590;2023-01-10T02:29:15;98299.38;;;2.72;67.52
72950;BME280;64868;45.710;9.590;2023-01-10T02:34:57;98290.06;;;2.44;66.58
72950;BME280;64868;45.710;9.590;2023-01-10T02:37:37;98292.34;;;2.35;68.04
72950;BME280;64868;45.710;9.590;2023-01-10T02:40:21;98302.47;;;2.30;68.16
72950;BME280;64868;45.710;9.590;2023-01-10T02:42:58;98302.56;;;2.46;66.86
72950;BME280;64868;45.710;9.590;2023-01-10T02:45:33;98314.09;;;2.30;69.18
72950;BME280;64868;45.710;9.590;2023-01-10T02:48:01;98315.38;;;2.23;68.84
72950;BME280;64868;45.710;9.590;2023-01-10T02:55:52;98318.72;;;2.28;68.89
72950;BME280;64868;45.710;9.590;2023-01-10T03:06:55;98330.78;;;2.19;68.59
72950;BME280;64868;45.710;9.590;2023-01-10T03:09:32;98339.75;;;2.20;70.06
72950;BME280;64868;45.710;9.590;2023-01-10T03:12:13;98335.22;;;2.38;67.82
72950;BME280;64868;45.710;9.590;2023-01-10T03:14:42;98348.16;;;2.31;68.83
72950;BME280;64868;45.710;9.590;2023-01-10T03:17:11;98345.31;;;2.15;69.27
72950;BME280;64868;45.710;9.590;2023-01-10T03:19:42;98352.63;;;2.13;69.12
72950;BME280;64868;45.710;9.590;2023-01-10T03:22:11;98351.09;;;2.08;68.78
72950;BME280;64868;45.710;9.590;2023-01-10T03:24:40;98351.66;;;2.14;68.74
72950;BME280;64868;45.710;9.590;2023-01-10T03:30:03;98370.56;;;2.13;70.27
72950;BME280;64868;45.710;9.590;2023-01-10T03:32:31;98368.16;;;2.07;70.24
72950;BME280;64868;45.710;9.590;2023-01-10T03:34:58;98365.00;;;1.99;70.40
72950;BME280;64868;45.710;9.590;2023-01-10T03:37:29;98377.81;;;1.93;71.07
72950;BME280;64868;45.710;9.590;2023-01-10T03:40:08;98374.56;;;2.04;71.04
72950;BME280;64868;45.710;9.590;2023-01-10T03:42:59;98384.28;;;2.26;68.18
72950;BME280;64868;45.710;9.590;2023-01-10T03:45:54;98381.66;;;2.24;69.79
72950;BME280;64868;45.710;9.590;2023-01-10T03:48:24;98387.97;;;2.23;68.47
72950;BME280;64868;45.710;9.590;2023-01-10T03:50:52;98388.63;;;2.28;69.07
72950;BME280;64868;45.710;9.590;2023-01-10T03:53:18;98388.44;;;2.14;68.58
72950;BME280;64868;45.710;9.590;2023-01-10T03:55:44;98376.72;;;2.15;69.14
72950;BME280;64868;45.710;9.590;2023-01-10T03:58:09;98380.66;;;2.08;69.09
72950;BME280;64868;45.710;9.590;2023-01-10T04:00:35;98398.47;;;2.10;69.24
72950;BME280;64868;45.710;9.590;2023-01-10T04:03:00;98413.56;;;2.32;67.82
72950;BME280;64868;45.710;9.590;2023-01-10T04:05:26;98385.97;;;2.80;64.22
72950;BME280;64868;45.710;9.590;2023-01-10T04:07:51;98410.69;;;2.88;65.47
72950;BME280;64868;45.710;9.590;2023-01-10T04:10:17;98421.84;;;2.63;66.07
72950;BME280;64868;45.710;9.590;2023-01-10T04:12:42;98415.41;;;2.49;66.20
72950;BME280;64868;45.710;9.590;2023-01-10T04:15:08;98410.25;;;2.44;66.93
72950;BME280;64868;45.710;9.590;2023-01-10T04:17:34;98415.09;;;2.72;65.36
72950;BME280;64868;45.710;9.590;2023-01-10T04:19:59;98417.63;;;2.75;65.16
72950;BME280;64868;45.710;9.590;2023-01-10T04:22:25;98407.19;;;2.86;62.44
72950;BME280;64868;45.710;9.590;2023-01-10T04:24:50;98422.41;;;3.05;64.50
72950;BME280;64868;45.710;9.590;2023-01-10T04:27:17;98407.97;;;2.71;65.79
72950;BME280;64868;45.710;9.590;2023-01-10T04:29:42;98430.84;;;2.62;64.83
72950;BME280;64868;45.710;9.590;2023-01-10T04:32:07;98441.19;;;2.53;66.54
72950;BME280;64868;45.710;9.590;2023-01-10T04:34:33;98447.91;;;2.44;66.97
72950;BME280;64868;45.710;9.590;2023-01-10T04:36:58;98444.56;;;2.58;66.22
72950;BME280;64868;45.710;9.590;2023-01-10T04:39:24;98436.53;;;2.39;67.46
72950;BME280;64868;45.710;9.590;2023-01-10T04:41:49;98451.84;;;2.37;67.07
72950;BME280;64868;45.710;9.590;2023-01-10T04:44:14;98447.84;;;2.27;68.05
72950;BME280;64868;45.710;9.590;2023-01-10T04:46:40;98462.97;;;2.29;67.55
72950;BME280;64868;45.710;9.590;2023-01-10T04:49:05;98450.00;;;2.20;67.54
72950;BME280;64868;45.710;9.590;2023-01-10T04:51:31;98448.81;;;2.26;67.27
72950;BME280;64868;45.710;9.590;2023-01-10T04:53:57;98449.34;;;2.51;66.53
72950;BME280;64868;45.710;9.590;2023-01-10T04:56:23;98449.84;;;2.59;66.65
72950;BME280;64868;45.710;9.590;2023-01-10T04:58:49;98454.25;;;2.43;65.86
72950;BME280;64868;45.710;9.590;2023-01-10T05:01:23;98455.72;;;2.67;66.23
72950;BME280;64868;45.710;9.590;2023-01-10T05:03:49;98473.56;;;2.51;67.50
72950;BME280;64868;45.710;9.590;2023-01-10T05:06:16;98467.72;;;2.60;65.94
72950;BME280;64868;45.710;9.590;2023-01-10T05:08:42;98470.03;;;2.32;66.73
72950;BME280;64868;45.710;9.590;2023-01-10T05:11:07;98460.91;;;2.17;67.84
72950;BME280;64868;45.710;9.590;2023-01-10T05:13:33;98467.38;;;2.13;69.20
72950;BME280;64868;45.710;9.590;2023-01-10T05:15:59;98459.66;;;2.05;69.67
72950;BME280;64868;45.710;9.590;2023-01-10T05:18:26;98474.25;;;2.00;70.12
72950;BME280;64868;45.710;9.590;2023-01-10T05:20:52;98486.22;;;1.92;69.85
72950;BME280;64868;45.710;9.590;2023-01-10T05:23:18;98489.38;;;1.83;69.67
72950;BME280;64868;45.710;9.590;2023-01-10T05:25:43;98493.81;;;2.03;69.11
72950;BME280;64868;45.710;9.590;2023-01-10T05:28:09;98495.97;;;1.95;70.72
72950;BME280;64868;45.710;9.590;2023-01-10T05:30:35;98502.44;;;1.91;69.79
72950;BME280;64868;45.710;9.590;2023-01-10T05:33:03;98504.31;;;1.89;70.33
72950;BME280;64868;45.710;9.590;2023-01-10T05:35:28;98500.13;;;1.83;70.79
72950;BME280;64868;45.710;9.590;2023-01-10T05:37:54;98482.97;;;1.67;70.40
72950;BME280;64868;45.710;9.590;2023-01-10T05:40:19;98491.47;;;1.77;69.61
72950;BME280;64868;45.710;9.590;2023-01-10T05:42:45;98513.72;;;1.99;69.16
72950;BME280;64868;45.710;9.590;2023-01-10T05:45:10;98520.31;;;1.92;70.58
72950;BME280;64868;45.710;9.590;2023-01-10T05:47:35;98517.31;;;1.79;70.71
72950;BME280;64868;45.710;9.590;2023-01-10T05:50:01;98523.69;;;1.77;70.91
72950;BME280;64868;45.710;9.590;2023-01-10T05:52:26;98533.75;;;1.92;69.59
72950;BME280;64868;45.710;9.590;2023-01-10T05:54:52;98545.22;;;2.16;69.29
72950;BME280;64868;45.710;9.590;2023-01-10T05:57:17;98546.63;;;2.23;68.67
72950;BME280;64868;45.710;9.590;2023-01-10T05:59:43;98528.03;;;2.00;68.51
72950;BME280;64868;45.710;9.590;2023-01-10T06:02:09;98533.84;;;1.90;69.78
72950;BME280;64868;45.710;9.590;2023-01-10T06:04:34;98547.63;;;1.83;70.83
72950;BME280;64868;45.710;9.590;2023-01-10T06:06:59;98554.22;;;1.76;70.67
72950;BME280;64868;45.710;9.590;2023-01-10T06:09:25;98550.41;;;2.00;68.77
72950;BME280;64868;45.710;9.590;2023-01-10T06:11:50;98550.97;;;1.88;69.53
72950;BME280;64868;45.710;9.590;2023-01-10T06:14:15;98561.63;;;1.89;69.81
72950;BME280;64868;45.710;9.590;2023-01-10T06:16:44;98556.91;;;1.76;70.89
72950;BME280;64868;45.710;9.590;2023-01-10T06:19:10;98557.38;;;1.65;70.67
72950;BME280;64868;45.710;9.590;2023-01-10T06:21:35;98579.69;;;1.67;71.28
72950;BME280;64868;45.710;9.590;2023-01-10T06:24:01;98584.38;;;1.62;71.69
72950;BME280;64868;45.710;9.590;2023-01-10T06:26:26;98610.78;;;1.73;70.67
72950;BME280;64868;45.710;9.590;2023-01-10T06:28:51;98592.16;;;1.68;71.55
72950;BME280;64868;45.710;9.590;2023-01-10T06:31:17;98617.16;;;1.70;71.00
72950;BME280;64868;45.710;9.590;2023-01-10T06:33:42;98630.00;;;1.63;72.51
72950;BME280;64868;45.710;9.590;2023-01-10T06:36:08;98625.41;;;1.45;72.99
72950;BME280;64868;45.710;9.590;2023-01-10T06:38:34;98630.16;;;1.38;73.01
72950;BME280;64868;45.710;9.590;2023-01-10T06:41:00;98637.47;;;1.55;72.23
72950;BME280;64868;45.710;9.590;2023-01-10T06:43:40;98639.19;;;1.58;71.25
72950;BME280;64868;45.710;9.590;2023-01-10T06:46:06;98645.69;;;1.93;70.22
72950;BME280;64868;45.710;9.590;2023-01-10T06:48:35;98648.88;;;1.82;71.40
72950;BME280;64868;45.710;9.590;2023-01-10T06:51:01;98649.66;;;1.64;71.92
72950;BME280;64868;45.710;9.590;2023-01-10T06:53:26;98674.66;;;1.66;72.07
72950;BME280;64868;45.710;9.590;2023-01-10T06:55:54;98674.41;;;1.72;71.56
72950;BME280;64868;45.710;9.590;2023-01-10T06:58:19;98665.38;;;1.73;71.83
72950;BME280;64868;45.710;9.590;2023-01-10T07:00:45;98667.94;;;1.76;70.98
72950;BME280;64868;45.710;9.590;2023-01-10T07:03:10;98686.56;;;1.81;71.36
72950;BME280;64868;45.710;9.590;2023-01-10T07:05:36;98670.47;;;1.59;72.70
72950;BME280;64868;45.710;9.590;2023-01-10T07:08:01;98675.72;;;1.62;72.26
72950;BME280;64868;45.710;9.590;2023-01-10T07:10:27;98693.09;;;1.53;72.80
72950;BME280;64868;45.710;9.590;2023-01-10T07:12:56;98697.19;;;1.41;73.83
72950;BME280;64868;45.710;9.590;2023-01-10T07:15:22;98708.25;;;1.34;74.03
72950;BME280;64868;45.710;9.590;2023-01-10T07:17:48;98722.34;;;1.39;73.91
72950;BME280;64868;45.710;9.590;2023-01-10T07:20:13;98719.03;;;1.54;73.79
72950;BME280;64868;45.710;9.590;2023-01-10T07:22:39;98722.66;;;1.53;74.01
72950;BME280;64868;45.710;9.590;2023-01-10T07:25:04;98725.41;;;1.52;74.18
72950;BME280;64868;45.710;9.590;2023-01-10T07:27:31;98722.66;;;1.53;74.37
72950;BME280;64868;45.710;9.590;2023-01-10T07:29:57;98725.53;;;1.49;74.44
72950;BME280;64868;45.710;9.590;2023-01-10T07:32:23;98744.91;;;1.57;73.04
72950;BME280;64868;45.710;9.590;2023-01-10T07:34:48;98748.38;;;1.59;73.05
72950;BME280;64868;45.710;9.590;2023-01-10T07:37:14;98750.81;;;1.65;74.29
72950;BME280;64868;45.710;9.590;2023-01-10T07:39:39;98736.13;;;1.74;73.23
72950;BME280;64868;45.710;9.590;2023-01-10T07:42:07;98749.41;;;1.78;72.97
72950;BME280;64868;45.710;9.590;2023-01-10T07:44:33;98767.47;;;1.95;72.72
72950;BME280;64868;45.710;9.590;2023-01-10T07:46:58;98763.94;;;1.94;72.05
72950;BME280;64868;45.710;9.590;2023-01-10T07:49:24;98782.63;;;1.98;72.38
72950;BME280;64868;45.710;9.590;2023-01-10T07:51:49;98787.13;;;1.97;71.40
72950;BME280;64868;45.710;9.590;2023-01-10T07:54:14;98780.41;;;2.07;71.88
72950;BME280;64868;45.710;9.590;2023-01-10T07:56:40;98782.00;;;2.11;71.86
72950;BME280;64868;45.710;9.590;2023-01-10T07:59:05;98795.13;;;2.19;70.70
72950;BME280;64868;45.710;9.590;2023-01-10T08:01:31;98799.81;;;2.36;71.06
72950;BME280;64868;45.710;9.590;2023-01-10T08:03:57;98801.34;;;2.41;70.13
72950;BME280;64868;45.710;9.590;2023-01-10T08:06:23;98792.88;;;2.51;69.55
72950;BME280;64868;45.710;9.590;2023-01-10T08:08:48;98817.94;;;2.72;69.57
72950;BME280;64868;45.710;9.590;2023-01-10T08:11:14;98822.78;;;2.84;68.85
72950;BME280;64868;45.710;9.590;2023-01-10T08:13:39;98825.47;;;3.04;68.63
72950;BME280;64868;45.710;9.590;2023-01-10T08:16:05;98836.03;;;3.09;67.93
72950;BME280;64868;45.710;9.590;2023-01-10T08:18:31;98824.28;;;3.10;67.17
72950;BME280;64868;45.710;9.590;2023-01-10T08:20:57;98835.22;;;3.26;66.79
72950;BME280;64868;45.710;9.590;2023-01-10T08:23:23;98851.50;;;3.43;66.25
72950;BME280;64868;45.710;9.590;2023-01-10T08:25:49;98857.72;;;3.64;64.71
72950;BME280;64868;45.710;9.590;2023-01-10T08:28:16;98846.75;;;3.67;64.42
72950;BME280;64868;45.710;9.590;2023-01-10T08:30:42;98860.19;;;3.87;64.44
72950;BME280;64868;45.710;9.590;2023-01-10T08:33:08;98863.22;;;3.99;64.17
72950;BME280;64868;45.710;9.590;2023-01-10T08:35:42;98869.13;;;4.07;63.76
72950;BME280;64868;45.710;9.590;2023-01-10T08:38:09;98872.78;;;4.23;63.53
72950;BME280;64868;45.710;9.590;2023-01-10T08:40:35;98879.00;;;4.43;62.79
72950;BME280;64868;45.710;9.590;2023-01-10T08:43:03;98878.47;;;4.53;62.51
72950;BME280;64868;45.710;9.590;2023-01-10T08:45:29;98882.94;;;4.72;61.50
72950;BME280;64868;45.710;9.590;2023-01-10T08:47:55;98887.97;;;4.97;61.20
72950;BME280;64868;45.710;9.590;2023-01-10T08:50:20;98891.28;;;5.19;60.49
72950;BME280;64868;45.710;9.590;2023-01-10T08:52:46;98870.41;;;6.19;56.67
72950;BME280;64868;45.710;9.590;2023-01-10T08:55:12;98888.47;;;15.40;35.79
72950;BME280;64868;45.710;9.590;2023-01-10T08:57:37;98895.31;;;19.95;26.76
72950;BME280;64868;45.710;9.590;2023-01-10T09:00:04;98916.69;;;24.10;20.35
72950;BME280;64868;45.710;9.590;2023-01-10T09:02:29;98917.41;;;26.57;17.48
72950;BME280;64868;45.710;9.590;2023-01-10T09:04:55;98913.50;;;27.81;15.71
72950;BME280;64868;45.710;9.590;2023-01-10T09:07:20;98915.38;;;28.19;15.16
72950;BME280;64868;45.710;9.590;2023-01-10T09:09:46;98927.47;;;29.91;13.68
72950;BME280;64868;45.710;9.590;2023-01-10T09:12:12;98934.78;;;29.62;13.64
72950;BME280;64868;45.710;9.590;2023-01-10T09:14:55;98953.47;;;30.82;13.05
72950;BME280;64868;45.710;9.590;2023-01-10T09:17:21;98960.16;;;30.46;13.12
72950;BME280;64868;45.710;9.590;2023-01-10T09:19:46;98965.22;;;31.66;11.86
72950;BME280;64868;45.710;9.590;2023-01-10T09:22:12;98982.22;;;31.08;12.69
72950;BME280;64868;45.710;9.590;2023-01-10T09:24:37;98976.09;;;31.34;11.65
72950;BME280;64868;45.710;9.590;2023-01-10T09:27:03;98966.28;;;31.77;11.56
72950;BME280;64868;45.710;9.590;2023-01-10T09:29:29;98958.44;;;29.73;12.71
72950;BME280;64868;45.710;9.590;2023-01-10T09:31:55;98967.69;;;28.81;13.37
72950;BME280;64868;45.710;9.590;2023-01-10T09:34:20;98975.31;;;30.57;12.41
72950;BME280;64868;45.710;9.590;2023-01-10T09:36:46;98982.47;;;31.18;12.18
72950;BME280;64868;45.710;9.590;2023-01-10T09:39:12;98982.22;;;32.91;10.28
72950;BME280;64868;45.710;9.590;2023-01-10T09:44:36;98996.38;;;33.08;9.82
72950;BME280;64868;45.710;9.590;2023-01-10T09:50:08;99004.31;;;32.43;9.97
72950;BME280;64868;45.710;9.590;2023-01-10T09:52:41;99007.34;;;32.42;10.12
72950;BME280;64868;45.710;9.590;2023-01-10T09:55:24;99007.91;;;34.33;9.00
72950;BME280;64868;45.710;9.590;2023-01-10T09:57:53;99012.47;;;33.07;9.16
72950;BME280;64868;45.710;9.590;2023-01-10T10:00:30;99026.69;;;34.17;8.63
72950;BME280;64868;45.710;9.590;2023-01-10T10:02:58;99005.25;;;30.27;10.62
72950;BME280;64868;45.710;9.590;2023-01-10T10:05:25;99013.03;;;28.78;11.05
72950;BME280;64868;45.710;9.590;2023-01-10T10:07:54;99022.81;;;32.39;9.47
72950;BME280;64868;45.710;9.590;2023-01-10T10:10:36;99017.22;;;34.55;8.02
72950;BME280;64868;45.710;9.590;2023-01-10T10:15:38;99036.00;;;34.39;8.06
72950;BME280;64868;45.710;9.590;2023-01-10T10:23:52;99039.13;;;34.97;8.20
72950;BME280;64868;45.710;9.590;2023-01-10T10:26:33;99037.53;;;35.12;6.50
72950;BME280;64868;45.710;9.590;2023-01-10T10:34:26;99033.00;;;31.71;6.80
72950;BME280;64868;45.710;9.590;2023-01-10T10:37:01;99029.56;;;30.22;7.78
72950;BME280;64868;45.710;9.590;2023-01-10T10:39:37;99027.41;;;32.29;7.14
72950;BME280;64868;45.710;9.590;2023-01-10T10:42:10;99044.94;;;31.15;7.06
72950;BME280;64868;45.710;9.590;2023-01-10T10:44:53;99030.38;;;30.52;7.75
72950;BME280;64868;45.710;9.590;2023-01-10T10:47:22;99043.91;;;31.68;7.12
72950;BME280;64868;45.710;9.590;2023-01-10T10:52:47;99049.25;;;31.41;7.09
72950;BME280;64868;45.710;9.590;2023-01-10T10:55:15;99048.88;;;29.26;9.37
72950;BME280;64868;45.710;9.590;2023-01-10T10:57:44;99033.72;;;28.27;9.47
72950;BME280;64868;45.710;9.590;2023-01-10T11:00:16;99048.09;;;29.19;9.59
72950;BME280;64868;45.710;9.590;2023-01-10T11:02:49;99047.69;;;28.66;10.00
72950;BME280;64868;45.710;9.590;2023-01-10T11:05:22;99048.34;;;27.39;10.45
72950;BME280;64868;45.710;9.590;2023-01-10T11:07:56;99039.16;;;26.59;10.15
72950;BME280;64868;45.710;9.590;2023-01-10T11:10:23;99043.34;;;26.02;10.92
72950;BME280;64868;45.710;9.590;2023-01-10T11:15:47;99037.03;;;26.75;9.48
72950;BME280;64868;45.710;9.590;2023-01-10T11:18:13;99039.78;;;26.88;9.97
72950;BME280;64868;45.710;9.590;2023-01-10T11:20:59;99042.13;;;24.94;10.21
72950;BME280;64868;45.710;9.590;2023-01-10T11:23:51;99056.78;;;25.03;10.66
72950;BME280;64868;45.710;9.590;2023-01-10T11:26:30;99052.66;;;24.42;10.37
72950;BME280;64868;45.710;9.590;2023-01-10T11:31:48;99058.28;;;23.25;10.30
72950;BME280;64868;45.710;9.590;2023-01-10T11:34:33;99062.03;;;23.03;11.10
72950;BME280;64868;45.710;9.590;2023-01-10T11:37:01;99067.47;;;23.70;10.92
72950;BME280;64868;45.710;9.590;2023-01-10T11:39:28;99057.56;;;23.83;10.53
72950;BME280;64868;45.710;9.590;2023-01-10T11:41:54;99054.47;;;22.97;10.69
72950;BME280;64868;45.710;9.590;2023-01-10T11:44:22;99063.91;;;22.04;11.77
72950;BME280;64868;45.710;9.590;2023-01-10T11:46:49;99051.78;;;18.88;14.43
72950;BME280;64868;45.710;9.590;2023-01-10T11:49:25;99052.38;;;16.66;16.58
72950;BME280;64868;45.710;9.590;2023-01-10T11:51:55;99059.34;;;15.24;18.40
72950;BME280;64868;45.710;9.590;2023-01-10T11:54:24;99057.63;;;14.52;20.36
72950;BME280;64868;45.710;9.590;2023-01-10T11:57:07;99060.97;;;14.14;19.75
72950;BME280;64868;45.710;9.590;2023-01-10T11:59:34;99051.03;;;13.81;20.21
72950;BME280;64868;45.710;9.590;2023-01-10T12:04:40;99040.16;;;13.58;20.95
72950;BME280;64868;45.710;9.590;2023-01-10T12:07:12;99033.72;;;13.48;20.82
72950;BME280;64868;45.710;9.590;2023-01-10T12:09:46;99035.97;;;13.54;21.81
72950;BME280;64868;45.710;9.590;2023-01-10T12:14:44;99019.59;;;13.21;20.41
72950;BME280;64868;45.710;9.590;2023-01-10T12:17:25;99018.13;;;13.17;20.85
72950;BME280;64868;45.710;9.590;2023-01-10T12:19:53;99024.63;;;13.04;20.62
72950;BME280;64868;45.710;9.590;2023-01-10T12:22:25;99036.81;;;13.11;20.09
72950;BME280;64868;45.710;9.590;2023-01-10T12:24:53;99041.06;;;13.04;19.83
72950;BME280;64868;45.710;9.590;2023-01-10T12:27:20;99025.34;;;13.06;20.16
72950;BME280;64868;45.710;9.590;2023-01-10T12:29:59;99021.03;;;13.04;19.66
72950;BME280;64868;45.710;9.590;2023-01-10T12:32:30;99029.25;;;13.04;21.42
72950;BME280;64868;45.710;9.590;2023-01-10T12:35:03;99045.03;;;13.00;21.22
72950;BME280;64868;45.710;9.590;2023-01-10T12:37:39;99034.34;;;12.97;20.15
72950;BME280;64868;45.710;9.590;2023-01-10T12:40:12;99049.97;;;13.06;19.86
72950;BME280;64868;45.710;9.590;2023-01-10T12:45:29;99046.28;;;12.96;21.39
72950;BME280;64868;45.710;9.590;2023-01-10T12:48:11;99061.22;;;12.92;21.34
72950;BME280;64868;45.710;9.590;2023-01-10T12:50:40;99046.28;;;12.96;20.26
72950;BME280;64868;45.710;9.590;2023-01-10T12:55:41;99052.50;;;12.98;21.08
72950;BME280;64868;45.710;9.590;2023-01-10T12:58:20;99057.00;;;12.88;20.80
72950;BME280;64868;45.710;9.590;2023-01-10T13:00:52;99072.03;;;12.82;21.38
72950;BME280;64868;45.710;9.590;2023-01-10T13:03:21;99056.63;;;12.81;20.51
72950;BME280;64868;45.710;9.590;2023-01-10T13:05:48;99060.97;;;12.84;20.52
72950;BME280;64868;45.710;9.590;2023-01-10T13:08:18;99059.59;;;12.78;20.55
72950;BME280;64868;45.710;9.590;2023-01-10T13:10:49;99060.22;;;12.82;20.75
72950;BME280;64868;45.710;9.590;2023-01-10T13:15:50;99065.56;;;12.95;19.42
72950;BME280;64868;45.710;9.590;2023-01-10T13:18:26;99054.97;;;13.01;19.43
72950;BME280;64868;45.710;9.590;2023-01-10T13:21:09;99059.69;;;13.10;18.58
72950;BME280;64868;45.710;9.590;2023-01-10T13:23:57;99061.22;;;13.03;19.74
72950;BME280;64868;45.710;9.590;2023-01-10T13:26:24;99061.72;;;12.97;18.36
72950;BME280;64868;45.710;9.590;2023-01-10T13:28:58;99067.19;;;12.97;19.21
72950;BME280;64868;45.710;9.590;2023-01-10T13:31:30;99061.22;;;12.92;19.80
72950;BME280;64868;45.710;9.590;2023-01-10T13:34:02;99063.44;;;12.98;19.49
72950;BME280;64868;45.710;9.590;2023-01-10T13:36:40;99063.06;;;13.03;18.69
72950;BME280;64868;45.710;9.590;2023-01-10T13:39:25;99058.72;;;13.00;19.74
72950;BME280;64868;45.710;9.590;2023-01-10T13:47:56;99061.72;;;12.86;19.94
72950;BME280;64868;45.710;9.590;2023-01-10T14:08:56;99094.78;;;12.60;20.74
72950;BME280;64868;45.710;9.590;2023-01-10T14:11:26;99090.31;;;12.59;20.20
72950;BME280;64868;45.710;9.590;2023-01-10T14:13:57;99085.94;;;12.57;20.17
72950;BME280;64868;45.710;9.590;2023-01-10T14:16:36;99095.03;;;12.57;20.37
72950;BME280;64868;45.710;9.590;2023-01-10T14:19:06;99088.34;;;12.61;20.84
72950;BME280;64868;45.710;9.590;2023-01-10T14:21:43;99095.63;;;12.50;19.44
72950;BME280;64868;45.710;9.590;2023-01-10T14:24:22;99076.13;;;12.32;20.10
72950;BME280;64868;45.710;9.590;2023-01-10T14:26:51;99086.44;;;12.39;19.44
72950;BME280;64868;45.710;9.590;2023-01-10T14:29:18;99089.94;;;12.53;19.26
72950;BME280;64868;45.710;9.590;2023-01-10T14:31:45;99075.97;;;12.22;20.45
72950;BME280;64868;45.710;9.590;2023-01-10T14:34:20;99075.66;;;12.03;22.36
72950;BME280;64868;45.710;9.590;2023-01-10T14:39:16;99078.53;;;12.01;21.12
72950;BME280;64868;45.710;9.590;2023-01-10T14:41:44;99077.00;;;11.86;22.06
72950;BME280;64868;45.710;9.590;2023-01-10T14:44:34;99092.59;;;12.19;21.52
72950;BME280;64868;45.710;9.590;2023-01-10T14:47:01;99087.03;;;11.85;22.80
72950;BME280;64868;45.710;9.590;2023-01-10T14:49:32;99090.22;;;11.79;22.33